createdAt,value
2022-11-27T00:01:37.744Z,8.33
2022-11-27T00:04:07.461Z,6.07
2022-11-27T00:06:37.445Z,7.47
2022-11-27T00:09:09.755Z,9.20
2022-11-27T00:11:39.354Z,10.53
2022-11-27T00:14:08.905Z,7.27
2022-11-27T00:16:37.189Z,7.70
2022-11-27T00:19:06.090Z,13.50
2022-11-27T00:21:37.046Z,12.93
2022-11-27T00:24:10.128Z,8.63
2022-11-27T00:26:38.684Z,10.07
2022-11-27T00:29:07.905Z,10.93
2022-11-27T00:31:37.684Z,8.60
2022-11-27T00:34:09.095Z,6.97
2022-11-27T00:36:38.518Z,13.27
2022-11-27T00:39:08.556Z,13.03
2022-11-27T00:41:36.964Z,10.40
2022-11-27T00:44:05.932Z,8.03
2022-11-27T00:46:36.168Z,5.43
2022-11-27T00:49:07.089Z,5.90
2022-11-27T00:51:35.995Z,9.63
2022-11-27T00:54:04.593Z,8.57
2022-11-27T00:56:36.788Z,8.97
2022-11-27T00:59:06.769Z,8.70
2022-11-27T01:01:40.713Z,7.60
2022-11-27T01:04:14.244Z,11.40
2022-11-27T01:06:43.938Z,8.87
2022-11-27T01:09:13.992Z,7.27
2022-11-27T01:11:44.092Z,6.47
2022-11-27T01:14:16.247Z,6.80
2022-11-27T01:16:44.924Z,6.37
2022-11-27T01:19:15.580Z,11.03
2022-11-27T01:21:44.131Z,8.50
2022-11-27T01:24:14.791Z,6.13
2022-11-27T01:26:45.297Z,7.90
2022-11-27T01:29:13.964Z,8.27
2022-11-27T01:31:42.440Z,10.97
2022-11-27T01:34:17.418Z,6.37
2022-11-27T01:36:46.511Z,10.80
2022-11-27T01:39:18.458Z,10.00
2022-11-27T01:41:49.352Z,13.77
2022-11-27T01:44:55.463Z,11.00
2022-11-27T01:47:37.835Z,7.60
2022-11-27T01:50:14.927Z,9.33
2022-11-27T01:52:49.065Z,5.87
2022-11-27T01:55:27.086Z,9.37
2022-11-27T01:58:01.310Z,8.60
2022-11-27T02:00:30.638Z,8.27
2022-11-27T02:02:59.316Z,12.20
2022-11-27T02:05:30.336Z,8.43
2022-11-27T02:08:02.005Z,7.07
2022-11-27T02:10:48.059Z,8.90
2022-11-27T02:13:27.070Z,6.70
2022-11-27T02:16:07.927Z,8.07
2022-11-27T02:18:45.282Z,10.90
2022-11-27T02:21:22.970Z,8.70
2022-11-27T02:24:31.871Z,9.00
2022-11-27T02:27:29.075Z,12.03
2022-11-27T02:30:02.334Z,5.50
2022-11-27T02:32:39.207Z,8.70
2022-11-27T02:35:15.774Z,13.27
2022-11-27T02:37:50.441Z,15.90
2022-11-27T02:40:26.185Z,12.87
2022-11-27T02:43:01.317Z,10.30
2022-11-27T02:45:35.835Z,12.60
2022-11-27T02:48:05.883Z,14.90
2022-11-27T02:50:38.929Z,12.03
2022-11-27T02:53:13.272Z,15.47
2022-11-27T02:55:43.417Z,11.30
2022-11-27T02:58:18.570Z,14.60
2022-11-27T03:00:48.984Z,24.83
2022-11-27T03:03:22.579Z,17.23
2022-11-27T03:05:57.191Z,17.53
2022-11-27T03:08:32.071Z,14.43
2022-11-27T03:11:08.817Z,16.27
2022-11-27T03:13:43.174Z,15.20
2022-11-27T03:16:22.074Z,10.10
2022-11-27T03:19:02.151Z,11.70
2022-11-27T03:21:40.588Z,11.23
2022-11-27T03:24:10.562Z,8.63
2022-11-27T03:26:40.305Z,11.67
2022-11-27T03:29:12.452Z,14.27
2022-11-27T03:31:42.415Z,7.20
2022-11-27T03:34:11.408Z,9.67
2022-11-27T03:36:39.686Z,13.03
2022-11-27T03:39:08.026Z,9.43
2022-11-27T03:41:46.902Z,7.90
2022-11-27T03:44:26.064Z,9.60
2022-11-27T03:47:08.594Z,5.70
2022-11-27T03:49:51.719Z,9.97
2022-11-27T03:52:28.246Z,7.13
2022-11-27T03:55:08.859Z,8.40
2022-11-27T03:57:44.409Z,5.60
2022-11-27T04:00:15.146Z,4.90
2022-11-27T04:02:47.775Z,6.97
2022-11-27T04:05:17.155Z,9.77
2022-11-27T04:07:45.657Z,7.13
2022-11-27T04:10:14.698Z,12.10
2022-11-27T04:12:43.643Z,6.73
2022-11-27T04:15:13.450Z,4.53
2022-11-27T04:17:42.019Z,3.10
2022-11-27T04:20:14.911Z,5.60
2022-11-27T04:22:43.389Z,7.77
2022-11-27T04:25:12.108Z,5.47
2022-11-27T04:27:40.507Z,5.80
2022-11-27T04:30:10.565Z,5.63
2022-11-27T04:32:38.847Z,8.10
2022-11-27T04:35:08.150Z,11.43
2022-11-27T04:37:37.957Z,4.40
2022-11-27T04:40:08.099Z,4.23
2022-11-27T04:42:36.382Z,3.93
2022-11-27T04:45:05.190Z,4.53
2022-11-27T04:47:33.424Z,7.67
2022-11-27T04:50:01.703Z,4.73
2022-11-27T04:52:29.952Z,4.50
2022-11-27T04:55:00.489Z,5.30
2022-11-27T04:57:29.180Z,7.10
2022-11-27T04:59:57.586Z,6.23
2022-11-27T05:02:26.253Z,5.63
2022-11-27T05:04:54.843Z,7.87
2022-11-27T05:07:23.141Z,4.57
2022-11-27T05:09:51.735Z,5.83
2022-11-27T05:12:21.367Z,6.30
2022-11-27T05:14:49.602Z,7.30
2022-11-27T05:17:18.060Z,7.57
2022-11-27T05:19:46.409Z,8.50
2022-11-27T05:22:14.643Z,7.03
2022-11-27T05:24:43.117Z,3.10
2022-11-27T05:27:11.480Z,6.67
2022-11-27T05:29:41.127Z,5.93
2022-11-27T05:32:09.342Z,8.03
2022-11-27T05:34:37.740Z,3.50
2022-11-27T05:37:06.467Z,5.33
2022-11-27T05:39:34.651Z,4.30
2022-11-27T05:42:02.899Z,4.30
2022-11-27T05:44:31.262Z,7.27
2022-11-27T05:47:00.940Z,7.50
2022-11-27T05:49:29.408Z,4.47
2022-11-27T05:51:57.941Z,4.77
2022-11-27T05:54:26.452Z,7.93
2022-11-27T05:56:54.716Z,5.80
2022-11-27T05:59:23.179Z,17.83
2022-11-27T06:01:51.504Z,5.13
2022-11-27T06:04:21.498Z,6.27
2022-11-27T06:06:49.759Z,7.13
2022-11-27T06:09:18.068Z,6.97
2022-11-27T06:11:46.478Z,5.30
2022-11-27T06:14:14.771Z,7.43
2022-11-27T06:16:43.535Z,5.97
2022-11-27T06:19:11.901Z,6.60
2022-11-27T06:21:41.498Z,5.73
2022-11-27T06:24:10.084Z,6.13
2022-11-27T06:26:38.330Z,5.93
2022-11-27T06:29:06.659Z,6.27
2022-11-27T06:31:35.376Z,9.13
2022-11-27T06:34:05.131Z,4.10
2022-11-27T06:36:36.825Z,12.87
2022-11-27T06:39:09.453Z,7.37
2022-11-27T06:41:37.914Z,6.00
2022-11-27T06:44:06.584Z,6.50
2022-11-27T06:46:35.084Z,8.87
2022-11-27T06:49:03.474Z,9.27
2022-11-27T06:51:33.492Z,10.13
2022-11-27T06:54:03.391Z,5.90
2022-11-27T06:56:33.401Z,5.90
2022-11-27T06:59:02.930Z,5.23
2022-11-27T07:01:32.703Z,8.00
2022-11-27T07:04:01.103Z,9.20
2022-11-27T07:06:29.547Z,10.83
2022-11-27T07:08:58.408Z,6.33
2022-11-27T07:11:29.797Z,6.00
2022-11-27T07:14:01.856Z,5.53
2022-11-27T07:16:33.252Z,5.73
2022-11-27T07:19:04.523Z,6.40
2022-11-27T07:21:33.579Z,8.07
2022-11-27T07:24:02.877Z,11.30
2022-11-27T07:26:31.989Z,5.07
2022-11-27T07:29:01.824Z,10.37
2022-11-27T07:31:31.536Z,9.60
2022-11-27T07:33:59.948Z,8.53
2022-11-27T07:36:30.693Z,8.37
2022-11-27T07:38:59.341Z,9.20
2022-11-27T07:41:33.429Z,8.93
2022-11-27T07:44:04.404Z,9.00
2022-11-27T07:46:32.887Z,6.10
2022-11-27T07:49:01.591Z,6.30
2022-11-27T07:51:30.323Z,11.13
2022-11-27T07:53:58.747Z,6.77
2022-11-27T07:56:27.438Z,7.70
2022-11-27T07:58:57.106Z,7.70
2022-11-27T08:01:26.881Z,9.40
2022-11-27T08:03:55.202Z,8.03
2022-11-27T08:06:25.944Z,6.67
2022-11-27T08:08:56.632Z,13.40
2022-11-27T08:11:27.418Z,9.03
2022-11-27T08:13:59.128Z,10.80
2022-11-27T08:16:29.801Z,10.33
2022-11-27T08:18:58.500Z,6.40
2022-11-27T08:21:28.471Z,7.70
2022-11-27T08:23:58.155Z,7.57
2022-11-27T08:26:28.767Z,6.43
2022-11-27T08:28:58.331Z,9.93
2022-11-27T08:31:28.443Z,9.50
2022-11-27T08:33:56.833Z,15.53
2022-11-27T08:36:27.665Z,8.53
2022-11-27T08:38:57.067Z,6.60
2022-11-27T08:41:25.620Z,6.73
2022-11-27T08:43:53.892Z,18.90
2022-11-27T08:46:22.144Z,14.70
2022-11-27T08:48:52.142Z,11.67
2022-11-27T08:51:20.467Z,10.77
2022-11-27T08:53:48.803Z,7.80
2022-11-27T08:56:20.144Z,11.27
2022-11-27T08:58:48.696Z,13.70
2022-11-27T09:01:19.349Z,11.00
2022-11-27T09:03:48.645Z,9.90
2022-11-27T09:06:21.774Z,8.33
2022-11-27T09:08:50.699Z,10.50
2022-11-27T09:11:21.103Z,16.37
2022-11-27T09:13:49.987Z,10.30
2022-11-27T09:16:22.537Z,5.70
2022-11-27T09:18:54.030Z,11.47
2022-11-27T09:21:27.196Z,17.00
2022-11-27T09:23:56.985Z,7.63
2022-11-27T09:26:26.530Z,9.43
2022-11-27T09:28:56.351Z,9.17
2022-11-27T09:31:25.985Z,6.83
2022-11-27T09:33:54.506Z,10.43
2022-11-27T09:36:27.418Z,8.43
2022-11-27T09:38:56.139Z,10.90
2022-11-27T09:41:46.165Z,9.63
2022-11-27T09:44:30.450Z,9.33
2022-11-27T09:47:02.897Z,8.20
2022-11-27T09:49:38.837Z,11.47
2022-11-27T09:52:15.705Z,5.57
2022-11-27T09:54:54.274Z,6.43
2022-11-27T09:57:30.177Z,8.73
2022-11-27T10:00:03.891Z,8.03
2022-11-27T10:02:36.451Z,7.87
2022-11-27T10:05:15.305Z,9.03
2022-11-27T10:08:27.588Z,7.23
2022-11-27T10:11:19.850Z,5.60
2022-11-27T10:14:03.343Z,8.67
2022-11-27T10:16:44.343Z,7.77
2022-11-27T10:19:30.840Z,7.30
2022-11-27T10:22:06.560Z,10.10
2022-11-27T10:24:47.307Z,8.97
2022-11-27T10:27:23.632Z,7.43
2022-11-27T10:29:55.900Z,7.03
2022-11-27T10:35:20.891Z,7.83
2022-11-27T10:37:54.256Z,10.57
2022-11-27T10:40:28.207Z,8.20
2022-11-27T10:43:04.688Z,10.93
2022-11-27T10:45:43.865Z,6.63
2022-11-27T10:48:12.919Z,9.13
2022-11-27T10:50:42.577Z,6.60
2022-11-27T10:53:16.105Z,6.70
2022-11-27T10:56:22.418Z,8.87
2022-11-27T10:58:57.875Z,9.03
2022-11-27T11:01:30.623Z,6.30
2022-11-27T11:04:37.033Z,12.93
2022-11-27T11:07:22.047Z,7.67
2022-11-27T11:09:50.550Z,12.37
2022-11-27T11:12:23.483Z,6.40
2022-11-27T11:14:54.839Z,8.03
2022-11-27T11:17:28.245Z,5.90
2022-11-27T11:19:56.644Z,6.90
2022-11-27T11:22:26.208Z,9.33
2022-11-27T11:24:55.740Z,8.43
2022-11-27T11:27:30.411Z,7.13
2022-11-27T11:30:02.780Z,8.83
2022-11-27T11:32:34.179Z,12.20
2022-11-27T11:35:08.476Z,5.53
2022-11-27T11:37:40.213Z,5.77
2022-11-27T11:40:24.604Z,12.50
2022-11-27T11:42:58.017Z,7.00
2022-11-27T11:45:32.274Z,7.57
2022-11-27T11:48:05.522Z,6.67
2022-11-27T11:50:42.217Z,9.33
2022-11-27T11:53:18.399Z,8.33
2022-11-27T11:55:59.502Z,5.73
2022-11-27T11:58:42.278Z,6.47
2022-11-27T12:01:44.935Z,9.57
2022-11-27T12:04:50.544Z,6.50
2022-11-27T12:07:30.840Z,6.50
2022-11-27T12:10:05.953Z,4.43
2022-11-27T12:12:52.494Z,6.17
2022-11-27T12:15:30.373Z,5.53
2022-11-27T12:18:04.942Z,6.23
2022-11-27T12:20:48.420Z,5.60
2022-11-27T12:23:54.659Z,8.87
2022-11-27T12:26:37.171Z,7.43
2022-11-27T12:29:41.633Z,7.17
2022-11-27T12:32:42.350Z,4.80
2022-11-27T12:35:34.190Z,9.13
2022-11-27T12:38:24.083Z,9.40
2022-11-27T12:41:23.323Z,6.80
2022-11-27T12:43:56.179Z,9.30
2022-11-27T12:46:31.309Z,8.00
2022-11-27T12:49:06.688Z,8.10
2022-11-27T12:51:43.981Z,8.40
2022-11-27T12:54:18.793Z,8.37
2022-11-27T12:56:49.960Z,7.10
2022-11-27T12:59:26.449Z,10.13
2022-11-27T13:02:07.164Z,11.20
2022-11-27T13:04:45.399Z,6.87
2022-11-27T13:07:19.238Z,7.17
2022-11-27T13:09:57.597Z,8.07
2022-11-27T13:12:31.895Z,6.53
2022-11-27T13:15:05.088Z,8.53
2022-11-27T13:17:40.341Z,10.97
2022-11-27T13:20:19.043Z,8.57
2022-11-27T13:22:49.360Z,8.63
2022-11-27T13:25:17.990Z,8.47
2022-11-27T13:27:49.875Z,8.23
2022-11-27T13:30:24.345Z,8.03
2022-11-27T13:32:56.147Z,10.73
2022-11-27T13:35:31.283Z,6.97
2022-11-27T13:38:07.841Z,14.33
2022-11-27T13:40:41.410Z,8.13
2022-11-27T13:43:28.812Z,6.50
2022-11-27T13:46:05.563Z,6.30
2022-11-27T13:48:38.165Z,10.07
2022-11-27T13:51:10.324Z,7.90
2022-11-27T13:53:42.168Z,9.13
2022-11-27T13:56:11.139Z,11.60
2022-11-27T13:58:41.893Z,7.60
2022-11-27T14:01:17.605Z,11.53
2022-11-27T14:03:46.400Z,8.90
2022-11-27T14:06:33.561Z,7.90
2022-11-27T14:09:05.182Z,8.40
2022-11-27T14:11:41.741Z,9.13
2022-11-27T14:14:21.132Z,10.63
2022-11-27T14:16:58.679Z,8.50
2022-11-27T14:19:34.355Z,11.30
2022-11-27T14:22:16.190Z,10.87
2022-11-27T14:24:45.997Z,10.60
2022-11-27T14:27:20.634Z,10.00
2022-11-27T14:29:49.167Z,9.60
2022-11-27T14:32:20.322Z,10.03
2022-11-27T14:34:50.307Z,14.80
2022-11-27T14:37:26.096Z,11.00
2022-11-27T14:39:54.407Z,9.77
2022-11-27T14:42:28.936Z,12.63
2022-11-27T14:45:09.359Z,13.27
2022-11-27T14:47:39.710Z,7.43
2022-11-27T14:50:12.409Z,11.13
2022-11-27T14:52:44.801Z,7.93
2022-11-27T14:55:16.453Z,10.53
2022-11-27T14:57:46.954Z,10.70
2022-11-27T15:00:24.345Z,12.47
2022-11-27T15:02:53.271Z,9.50
2022-11-27T15:05:25.146Z,10.67
2022-11-27T15:07:58.200Z,10.17
2022-11-27T15:10:36.613Z,12.73
2022-11-27T15:13:07.457Z,8.43
2022-11-27T15:15:43.233Z,8.03
2022-11-27T15:18:23.365Z,10.10
2022-11-27T15:20:52.977Z,12.23
2022-11-27T15:23:27.832Z,8.40
2022-11-27T15:26:15.201Z,10.03
2022-11-27T15:28:53.562Z,11.77
2022-11-27T15:31:30.824Z,10.20
2022-11-27T15:34:05.926Z,10.03
2022-11-27T15:36:41.894Z,9.77
2022-11-27T15:39:23.282Z,13.20
2022-11-27T15:41:57.701Z,10.03
2022-11-27T15:44:28.923Z,12.60
2022-11-27T15:47:00.446Z,8.43
2022-11-27T15:49:29.163Z,12.53
2022-11-27T15:51:58.926Z,13.00
2022-11-27T15:54:28.612Z,11.57
2022-11-27T15:56:56.901Z,10.20
2022-11-27T15:59:27.284Z,10.83
2022-11-27T16:01:56.026Z,15.83
2022-11-27T16:04:24.513Z,13.23
2022-11-27T16:06:52.837Z,10.20
2022-11-27T16:09:21.462Z,10.60
2022-11-27T16:11:51.268Z,10.90
2022-11-27T16:14:19.756Z,14.10
2022-11-27T16:16:48.603Z,13.50
2022-11-27T16:19:17.269Z,14.13
2022-11-27T16:21:45.670Z,11.40
2022-11-27T16:24:15.323Z,8.90
2022-11-27T16:26:43.986Z,14.47
2022-11-27T16:29:13.635Z,11.03
2022-11-27T16:31:42.966Z,13.13
2022-11-27T16:34:11.504Z,11.80
2022-11-27T16:36:43.781Z,9.80
2022-11-27T16:39:13.232Z,10.07
2022-11-27T16:41:41.613Z,15.40
2022-11-27T16:44:14.842Z,13.00
2022-11-27T16:46:44.811Z,15.50
2022-11-27T16:49:14.216Z,14.87
2022-11-27T16:51:43.923Z,16.80
2022-11-27T16:54:14.597Z,17.33
2022-11-27T16:56:44.448Z,10.43
2022-11-27T16:59:16.332Z,10.90
2022-11-27T17:01:45.574Z,10.27
2022-11-27T17:04:19.563Z,12.67
2022-11-27T17:06:49.523Z,11.60
2022-11-27T17:09:18.288Z,12.70
2022-11-27T17:11:49.492Z,11.97
2022-11-27T17:14:21.073Z,14.83
2022-11-27T17:16:50.907Z,12.03
2022-11-27T17:19:20.160Z,12.00
2022-11-27T17:21:48.526Z,10.63
2022-11-27T17:24:18.041Z,13.10
2022-11-27T17:26:48.493Z,12.37
2022-11-27T17:29:21.721Z,11.30
2022-11-27T17:31:51.797Z,9.77
2022-11-27T17:34:20.655Z,10.40
2022-11-27T17:36:53.622Z,14.50
2022-11-27T17:39:22.543Z,10.30
2022-11-27T17:41:51.289Z,12.47
2022-11-27T17:44:21.256Z,14.73
2022-11-27T17:46:50.722Z,13.27
2022-11-27T17:49:22.020Z,13.97
2022-11-27T17:51:51.256Z,11.50
2022-11-27T17:54:20.560Z,13.63
2022-11-27T17:56:51.506Z,12.47
2022-11-27T17:59:22.337Z,12.77
2022-11-27T18:01:53.176Z,15.87
2022-11-27T18:04:23.071Z,13.03
2022-11-27T18:06:51.862Z,14.87
2022-11-27T18:09:22.181Z,14.53
2022-11-27T18:11:50.500Z,22.03
2022-11-27T18:14:20.882Z,15.90
2022-11-27T18:16:49.324Z,12.00
2022-11-27T18:19:17.777Z,11.90
2022-11-27T18:21:46.517Z,13.67
2022-11-27T18:24:24.021Z,14.43
2022-11-27T18:27:09.683Z,13.90
2022-11-27T18:29:42.645Z,14.40
2022-11-27T18:32:12.475Z,12.80
2022-11-27T18:34:42.384Z,12.60
2022-11-27T18:37:11.556Z,14.87
2022-11-27T18:39:41.034Z,17.73
2022-11-27T18:42:09.981Z,12.53
2022-11-27T18:44:44.997Z,12.93
2022-11-27T18:47:14.947Z,14.87
2022-11-27T18:49:45.260Z,14.60
2022-11-27T18:52:15.496Z,14.90
2022-11-27T18:54:44.316Z,14.37
2022-11-27T18:57:13.245Z,11.40
2022-11-27T18:59:45.059Z,16.43
2022-11-27T19:02:14.298Z,14.60
2022-11-27T19:04:44.854Z,14.07
2022-11-27T19:07:13.755Z,13.00
2022-11-27T19:09:42.540Z,17.13
2022-11-27T19:12:12.185Z,21.07
2022-11-27T19:14:42.027Z,16.30
2022-11-27T19:17:10.514Z,16.63
2022-11-27T19:19:56.945Z,19.30
2022-11-27T19:22:27.756Z,13.30
2022-11-27T19:24:58.065Z,17.43
2022-11-27T19:27:26.500Z,16.13
2022-11-27T19:29:56.184Z,16.10
2022-11-27T19:32:24.498Z,13.83
2022-11-27T19:34:53.055Z,13.10
2022-11-27T19:37:34.202Z,15.03
2022-11-27T19:40:04.073Z,14.93
2022-11-27T19:42:32.645Z,20.17
2022-11-27T19:45:02.299Z,14.53
2022-11-27T19:47:30.764Z,14.63
2022-11-27T19:49:59.159Z,15.30
2022-11-27T19:52:27.576Z,11.83
2022-11-27T19:54:55.916Z,19.13
2022-11-27T19:57:25.197Z,14.70
2022-11-27T19:59:53.567Z,20.77
2022-11-27T20:02:25.533Z,12.83
2022-11-27T20:04:55.437Z,17.50
2022-11-27T20:07:23.980Z,14.70
2022-11-27T20:09:52.791Z,16.00
2022-11-27T20:12:21.735Z,17.60
2022-11-27T20:14:50.027Z,17.23
2022-11-27T20:17:19.732Z,15.20
2022-11-27T20:19:49.393Z,18.20
2022-11-27T20:22:19.241Z,14.10
2022-11-27T20:25:04.381Z,18.53
2022-11-27T20:27:37.103Z,20.13
2022-11-27T20:30:08.163Z,17.20
2022-11-27T20:32:36.765Z,17.90
2022-11-27T20:35:07.148Z,20.87
2022-11-27T20:37:35.577Z,16.67
2022-11-27T20:40:07.764Z,16.10
2022-11-27T20:42:36.455Z,15.97
2022-11-27T20:45:06.353Z,18.90
2022-11-27T20:47:36.236Z,18.17
2022-11-27T20:50:08.355Z,18.00
2022-11-27T20:52:37.323Z,17.47
2022-11-27T20:55:07.099Z,15.70
2022-11-27T20:57:35.399Z,16.27
2022-11-27T21:00:03.872Z,16.90
2022-11-27T21:02:32.507Z,15.13
2022-11-27T21:05:01.032Z,14.77
2022-11-27T21:07:30.825Z,14.73
2022-11-27T21:09:59.599Z,16.23
2022-11-27T21:12:27.935Z,16.70
2022-11-27T21:14:56.901Z,17.40
2022-11-27T21:17:25.199Z,19.20
2022-11-27T21:19:53.776Z,18.17
2022-11-27T21:22:22.346Z,18.80
2022-11-27T21:24:52.835Z,20.73
2022-11-27T21:27:21.809Z,17.13
2022-11-27T21:29:50.137Z,19.60
2022-11-27T21:32:22.437Z,18.00
2022-11-27T21:34:51.234Z,18.47
2022-11-27T21:37:19.579Z,15.83
2022-11-27T21:39:47.994Z,22.33
2022-11-27T21:42:18.377Z,17.73
2022-11-27T21:44:47.079Z,13.63
2022-11-27T21:47:15.338Z,15.50
2022-11-27T21:49:44.085Z,19.20
2022-11-27T21:52:14.222Z,14.70
2022-11-27T21:54:42.858Z,16.60
2022-11-27T21:57:11.179Z,11.00
2022-11-27T21:59:43.878Z,18.67
2022-11-27T22:02:13.070Z,17.10
2022-11-27T22:04:41.845Z,14.43
2022-11-27T22:07:10.307Z,19.43
2022-11-27T22:09:38.559Z,20.80
2022-11-27T22:12:07.355Z,18.53
2022-11-27T22:14:35.961Z,15.20
2022-11-27T22:17:05.619Z,17.13
2022-11-27T22:19:36.259Z,16.37
2022-11-27T22:22:04.609Z,15.70
2022-11-27T22:24:32.972Z,17.47
2022-11-27T22:27:01.524Z,16.10
2022-11-27T22:29:29.813Z,15.20
2022-11-27T22:31:58.782Z,16.63
2022-11-27T22:34:28.537Z,15.43
2022-11-27T22:36:57.306Z,19.67
2022-11-27T22:39:25.623Z,15.53
2022-11-27T22:41:54.144Z,12.90
2022-11-27T22:44:22.447Z,12.17
2022-11-27T22:46:51.085Z,20.60
2022-11-27T22:49:20.085Z,22.23
2022-11-27T22:51:49.764Z,18.00
2022-11-27T22:54:18.891Z,17.70
2022-11-27T22:56:47.747Z,17.10
2022-11-27T22:59:32.289Z,18.07
2022-11-27T23:02:03.582Z,15.93
2022-11-27T23:04:32.036Z,12.13
2022-11-27T23:07:01.768Z,15.60
2022-11-27T23:09:30.974Z,13.30
2022-11-27T23:11:59.584Z,16.50
2022-11-27T23:14:28.617Z,11.77
2022-11-27T23:16:57.022Z,17.97
2022-11-27T23:19:25.426Z,19.00
2022-11-27T23:21:53.753Z,16.60
2022-11-27T23:24:24.382Z,12.07
2022-11-27T23:26:52.676Z,14.53
2022-11-27T23:29:20.931Z,15.77
2022-11-27T23:31:49.257Z,19.03
2022-11-27T23:34:17.765Z,13.33
2022-11-27T23:36:46.120Z,15.87
2022-11-27T23:39:15.887Z,14.10
2022-11-27T23:41:46.314Z,14.00
2022-11-27T23:44:14.657Z,15.60
2022-11-27T23:46:42.866Z,12.07
2022-11-27T23:49:11.203Z,17.53
2022-11-27T23:51:39.500Z,12.43
2022-11-27T23:54:10.654Z,14.43
2022-11-27T23:56:40.911Z,14.93
2022-11-27T23:59:11.291Z,13.90
